createdAt,value
2022-09-20T00:01:35.951Z,58490.81
2022-09-20T00:04:05.307Z,58468.03
2022-09-20T00:06:32.691Z,58461.84
2022-09-20T00:08:59.805Z,58439.06
2022-09-20T00:11:28.619Z,58432.84
2022-09-20T00:13:57.049Z,58490.81
2022-09-20T00:16:26.652Z,58410.09
2022-09-20T00:18:54.619Z,58368.69
2022-09-20T00:21:24.426Z,58641.94
2022-09-20T00:23:52.289Z,58323.13
2022-09-20T00:26:19.062Z,58343.84
2022-09-20T00:28:46.953Z,58347.97
2022-09-20T00:31:14.703Z,58379.03
2022-09-20T00:34:00.025Z,58356.25
2022-09-20T00:36:30.098Z,58387.31
2022-09-20T00:38:58.007Z,58395.59
2022-09-20T00:41:24.566Z,58395.59
2022-09-20T00:43:51.096Z,58383.16
2022-09-20T00:46:32.740Z,58395.59
2022-09-20T00:49:04.192Z,58449.41
2022-09-20T00:51:34.561Z,58675.06
2022-09-20T00:54:03.788Z,58391.44
2022-09-20T00:56:33.327Z,58325.22
2022-09-20T00:59:22.689Z,58341.78
2022-09-20T01:01:55.926Z,58312.78
2022-09-20T01:04:24.308Z,58376.97
2022-09-20T01:06:52.471Z,58381.09
2022-09-20T01:09:18.877Z,58399.72
2022-09-20T01:11:46.463Z,58372.81
2022-09-20T01:14:13.935Z,58341.78
2022-09-20T01:16:40.602Z,58341.78
2022-09-20T01:19:18.507Z,58347.97
2022-09-20T01:21:46.193Z,58277.59
2022-09-20T01:24:30.942Z,58329.34
2022-09-20T01:26:57.540Z,58374.88
2022-09-20T01:29:39.117Z,58443.19
2022-09-20T01:32:11.706Z,58383.16
2022-09-20T01:34:46.170Z,58408.00
2022-09-20T01:37:19.183Z,58426.63
2022-09-20T01:40:02.215Z,58393.53
2022-09-20T01:42:38.211Z,58376.97
2022-09-20T01:45:32.447Z,58391.44
2022-09-20T01:48:26.726Z,58385.25
2022-09-20T01:51:23.470Z,58428.72
2022-09-20T01:54:21.053Z,58412.16
2022-09-20T01:57:10.748Z,58437.00
2022-09-20T02:00:01.550Z,58391.44
2022-09-20T02:02:42.228Z,58656.41
2022-09-20T02:05:28.260Z,58345.91
2022-09-20T02:07:57.699Z,58362.47
2022-09-20T02:10:47.788Z,58383.16
2022-09-20T02:13:26.571Z,58412.16
2022-09-20T02:16:07.893Z,58420.44
2022-09-20T02:19:07.882Z,58451.47
2022-09-20T02:22:06.611Z,58451.47
2022-09-20T02:24:55.640Z,58428.72
2022-09-20T02:27:22.148Z,58428.72
2022-09-20T02:30:13.513Z,58395.59
2022-09-20T02:33:11.242Z,58389.38
2022-09-20T02:35:42.238Z,58437.00
2022-09-20T02:38:11.870Z,58441.13
2022-09-20T02:40:47.506Z,58445.28
2022-09-20T02:43:25.974Z,58383.16
2022-09-20T02:46:09.103Z,58408.00
2022-09-20T02:48:55.191Z,58292.09
2022-09-20T02:51:30.954Z,58302.44
2022-09-20T02:54:15.513Z,58333.50
2022-09-20T02:57:08.238Z,58316.94
2022-09-20T02:59:58.798Z,58290.03
2022-09-20T03:02:51.931Z,58258.97
2022-09-20T03:05:26.225Z,58238.28
2022-09-20T03:08:14.403Z,58296.22
2022-09-20T03:10:59.010Z,58242.41
2022-09-20T03:13:28.350Z,58273.47
2022-09-20T03:16:22.422Z,58240.34
2022-09-20T03:19:01.125Z,58263.13
2022-09-20T03:21:52.317Z,58254.84
2022-09-20T03:24:21.600Z,58304.50
2022-09-20T03:27:07.024Z,58263.13
2022-09-20T03:30:01.820Z,58312.78
2022-09-20T03:33:04.522Z,58308.66
2022-09-20T03:35:42.964Z,58310.72
2022-09-20T03:38:31.063Z,58350.06
2022-09-20T03:41:31.547Z,58393.53
2022-09-20T03:43:57.915Z,58509.44
2022-09-20T03:46:44.553Z,58602.59
2022-09-20T03:49:35.860Z,58563.25
2022-09-20T03:52:21.967Z,58557.06
2022-09-20T03:55:10.272Z,58631.56
2022-09-20T03:58:01.074Z,58654.34
2022-09-20T04:00:36.041Z,58681.25
2022-09-20T04:03:37.317Z,58681.25
2022-09-20T04:06:21.996Z,58691.59
2022-09-20T04:09:14.458Z,58681.25
2022-09-20T04:11:50.777Z,58656.41
2022-09-20T04:14:39.115Z,58695.75
2022-09-20T04:17:46.789Z,58811.69
2022-09-20T04:20:20.427Z,58697.81
2022-09-20T04:22:51.299Z,58704.03
2022-09-20T04:25:23.890Z,58693.69
2022-09-20T04:27:53.934Z,58672.97
2022-09-20T04:30:29.673Z,58666.78
2022-09-20T04:33:15.380Z,58693.69
2022-09-20T04:36:28.744Z,58743.38
2022-09-20T04:39:10.635Z,58755.78
2022-09-20T04:42:05.271Z,58807.53
2022-09-20T04:44:46.999Z,58784.78
2022-09-20T04:47:25.684Z,58749.56
2022-09-20T04:50:49.956Z,58764.06
2022-09-20T04:53:19.051Z,58782.69
2022-09-20T04:56:21.956Z,58749.56
2022-09-20T04:59:07.929Z,58764.06
2022-09-20T05:01:54.562Z,58770.28
2022-09-20T05:04:26.716Z,58712.31
2022-09-20T05:07:14.640Z,58751.66
2022-09-20T05:10:14.504Z,58706.09
2022-09-20T05:12:54.628Z,58716.44
2022-09-20T05:15:56.488Z,58704.03
2022-09-20T05:18:40.801Z,58714.38
2022-09-20T05:21:07.137Z,58710.25
2022-09-20T05:23:52.171Z,58710.25
2022-09-20T05:26:45.828Z,58788.91
2022-09-20T05:29:24.718Z,58720.59
2022-09-20T05:32:06.418Z,58751.66
2022-09-20T05:34:59.125Z,58776.50
2022-09-20T05:38:02.738Z,58838.59
2022-09-20T05:40:33.584Z,58819.97
2022-09-20T05:43:11.233Z,58884.13
2022-09-20T05:45:52.749Z,58904.84
2022-09-20T05:48:26.462Z,58871.72
2022-09-20T05:51:03.513Z,58894.50
2022-09-20T05:53:57.818Z,58871.72
2022-09-20T05:56:47.161Z,58830.31
2022-09-20T05:59:45.868Z,58921.41
2022-09-20T06:02:27.094Z,58929.69
2022-09-20T06:05:15.479Z,58948.31
2022-09-20T06:08:03.858Z,59145.00
2022-09-20T06:10:39.691Z,59422.44
2022-09-20T06:13:20.802Z,59623.28
2022-09-20T06:16:04.539Z,59778.59
2022-09-20T06:18:33.809Z,59946.31
2022-09-20T06:21:17.835Z,59946.31
2022-09-20T06:23:44.470Z,59617.06
2022-09-20T06:26:17.852Z,59455.56
2022-09-20T06:28:55.210Z,59335.47
2022-09-20T06:31:24.077Z,59339.63
2022-09-20T06:34:07.554Z,59267.16
2022-09-20T06:36:54.009Z,59267.16
2022-09-20T06:40:08.630Z,59252.66
2022-09-20T06:42:36.123Z,59198.81
2022-09-20T06:45:02.767Z,59248.53
2022-09-20T06:47:29.526Z,59279.56
2022-09-20T06:49:56.479Z,59341.69
2022-09-20T06:52:23.011Z,59426.59
2022-09-20T06:54:53.769Z,59260.94
2022-09-20T06:57:33.886Z,59397.59
2022-09-20T07:00:00.646Z,59583.94
2022-09-20T07:02:27.167Z,59269.22
2022-09-20T07:04:59.158Z,59339.63
2022-09-20T07:07:25.645Z,59260.94
2022-09-20T07:09:52.000Z,59316.84
2022-09-20T07:12:18.674Z,59368.59
2022-09-20T07:14:45.486Z,59470.06
2022-09-20T07:17:12.051Z,59387.25
2022-09-20T07:19:38.469Z,59405.88
2022-09-20T07:22:04.950Z,59449.34
2022-09-20T07:24:32.096Z,59474.19
2022-09-20T07:27:01.123Z,59569.44
2022-09-20T07:29:28.233Z,59735.09
2022-09-20T07:31:56.196Z,59788.94
2022-09-20T07:34:22.607Z,59838.63
2022-09-20T07:36:50.177Z,59993.94
2022-09-20T07:39:19.382Z,59712.31
2022-09-20T07:41:48.418Z,59877.97
2022-09-20T07:44:21.425Z,60281.81
2022-09-20T07:46:49.013Z,60207.25
2022-09-20T07:49:15.677Z,60196.91
2022-09-20T07:51:42.551Z,60250.75
2022-09-20T07:54:09.111Z,60437.13
2022-09-20T07:56:36.128Z,60172.03
2022-09-20T07:59:02.534Z,60362.56
2022-09-20T08:01:29.087Z,60482.69
2022-09-20T08:03:57.077Z,60383.28
2022-09-20T08:06:23.983Z,60188.59
2022-09-20T08:08:51.787Z,60269.38
2022-09-20T08:11:29.066Z,60180.31
2022-09-20T08:14:06.274Z,60080.91
2022-09-20T08:16:38.479Z,60018.78
2022-09-20T08:19:05.098Z,60060.22
2022-09-20T08:21:33.551Z,60080.91
2022-09-20T08:24:00.137Z,60035.38
2022-09-20T08:33:49.253Z,60797.50
2022-09-20T08:36:57.702Z,61213.84
2022-09-20T08:42:33.319Z,61226.28
2022-09-20T08:45:04.634Z,61398.22
2022-09-20T08:47:36.760Z,61205.56
2022-09-20T08:50:17.511Z,61168.28
2022-09-20T08:52:48.362Z,61340.22
2022-09-20T08:55:19.900Z,61068.84
2022-09-20T08:57:54.846Z,61037.78
2022-09-20T09:00:24.052Z,60917.63
2022-09-20T09:02:52.969Z,61004.63
2022-09-20T09:05:34.799Z,61019.13
2022-09-20T09:08:05.319Z,60602.81
2022-09-20T09:10:42.558Z,60611.09
2022-09-20T09:13:15.217Z,60780.94
2022-09-20T09:15:43.416Z,60872.06
2022-09-20T09:18:11.466Z,60830.66
2022-09-20T09:20:43.240Z,60859.66
2022-09-20T09:23:25.841Z,60805.78
2022-09-20T09:25:53.909Z,60909.34
2022-09-20T09:28:25.028Z,60834.78
2022-09-20T09:30:51.494Z,60563.47
2022-09-20T09:33:22.455Z,60565.53
2022-09-20T09:35:53.181Z,60428.84
2022-09-20T09:38:24.088Z,60375.00
2022-09-20T09:40:57.703Z,60302.50
2022-09-20T09:43:30.269Z,60341.84
2022-09-20T09:46:17.134Z,60182.41
2022-09-20T09:48:49.532Z,59917.31
2022-09-20T09:51:18.917Z,59875.91
2022-09-20T09:53:46.819Z,59855.19
2022-09-20T09:56:17.399Z,59741.31
2022-09-20T09:59:28.829Z,59728.88
2022-09-20T10:02:10.909Z,59733.03
2022-09-20T10:04:54.055Z,60275.59
2022-09-20T10:07:26.934Z,59861.41
2022-09-20T10:10:10.012Z,59861.41
2022-09-20T10:13:13.925Z,60029.16
2022-09-20T10:16:17.639Z,60132.69
2022-09-20T10:18:54.596Z,60209.31
2022-09-20T10:21:50.873Z,60381.22
2022-09-20T10:24:30.749Z,60360.50
2022-09-20T10:27:15.569Z,60619.38
2022-09-20T10:30:17.390Z,60600.75
2022-09-20T10:32:45.843Z,60619.38
2022-09-20T10:35:33.770Z,60652.53
2022-09-20T10:38:23.432Z,60515.81
2022-09-20T10:41:31.850Z,60441.28
2022-09-20T10:44:46.525Z,60594.53
2022-09-20T10:47:21.587Z,60582.09
2022-09-20T10:50:10.019Z,60617.31
2022-09-20T10:52:49.175Z,60623.53
2022-09-20T10:55:20.326Z,60362.56
2022-09-20T10:58:08.760Z,60360.50
2022-09-20T11:00:38.129Z,60526.19
2022-09-20T11:03:36.450Z,60751.94
2022-09-20T11:06:22.894Z,60855.50
2022-09-20T11:08:54.080Z,60915.56
2022-09-20T11:11:26.110Z,61070.91
2022-09-20T11:14:05.939Z,61025.34
2022-09-20T11:16:51.038Z,61193.13
2022-09-20T11:19:23.500Z,61315.34
2022-09-20T11:21:58.433Z,61199.34
2022-09-20T11:24:46.250Z,61315.34
2022-09-20T11:27:18.682Z,61168.28
2022-09-20T11:30:09.839Z,61108.22
2022-09-20T11:32:44.670Z,61377.50
2022-09-20T11:35:11.142Z,61450.00
2022-09-20T11:37:52.743Z,61485.22
2022-09-20T11:40:26.874Z,61617.81
2022-09-20T11:42:56.413Z,61957.56
2022-09-20T11:45:28.118Z,61634.38
2022-09-20T11:48:00.485Z,61425.16
2022-09-20T11:50:32.912Z,61568.09
2022-09-20T11:53:08.654Z,61663.38
2022-09-20T11:55:34.989Z,61588.81
2022-09-20T11:58:13.587Z,62038.38
2022-09-20T12:00:41.787Z,62204.13
2022-09-20T12:03:33.890Z,62307.72
2022-09-20T12:06:06.325Z,62104.69
2022-09-20T12:08:35.945Z,62042.53
2022-09-20T12:11:05.304Z,62357.47
2022-09-20T12:13:35.337Z,62357.47
2022-09-20T12:16:04.857Z,62220.72
2022-09-20T12:18:34.282Z,62119.19
2022-09-20T12:21:05.930Z,62044.59
2022-09-20T12:23:42.137Z,62015.59
2022-09-20T12:26:13.267Z,62059.09
2022-09-20T12:28:42.026Z,61802.19
2022-09-20T12:31:29.638Z,61729.69
2022-09-20T12:34:15.779Z,61729.69
2022-09-20T12:36:44.177Z,61694.47
2022-09-20T12:39:17.597Z,61856.06
2022-09-20T12:41:50.535Z,61932.72
2022-09-20T12:44:29.332Z,61856.06
2022-09-20T12:47:08.481Z,61866.41
2022-09-20T12:50:05.782Z,62115.03
2022-09-20T12:52:54.982Z,62280.78
2022-09-20T12:55:27.343Z,61773.19
2022-09-20T12:58:03.051Z,62297.38
2022-09-20T13:00:38.691Z,62210.34
2022-09-20T13:03:29.513Z,62272.50
2022-09-20T13:06:08.803Z,62761.53
2022-09-20T13:08:57.208Z,62270.44
2022-09-20T13:11:27.541Z,61976.22
2022-09-20T13:14:08.792Z,61798.03
2022-09-20T13:17:06.120Z,61806.34
2022-09-20T13:19:34.600Z,61791.84
2022-09-20T13:22:00.935Z,61503.88
2022-09-20T13:24:35.747Z,61232.50
2022-09-20T13:27:06.543Z,61131.00
2022-09-20T13:29:37.841Z,60923.84
2022-09-20T13:32:24.507Z,60698.09
2022-09-20T13:35:08.142Z,60660.81
2022-09-20T13:37:35.197Z,60594.53
2022-09-20T13:40:02.837Z,60534.47
2022-09-20T13:42:30.024Z,60495.13
2022-09-20T13:44:58.642Z,60453.69
2022-09-20T13:47:30.181Z,60337.72
2022-09-20T13:50:02.525Z,60254.88
2022-09-20T13:52:31.091Z,60275.59
2022-09-20T13:54:57.743Z,60261.09
2022-09-20T13:57:29.472Z,60292.16
2022-09-20T13:59:57.063Z,60300.44
2022-09-20T14:02:29.591Z,60283.88
2022-09-20T14:04:57.080Z,60292.16
2022-09-20T14:07:26.047Z,60294.22
2022-09-20T14:09:54.015Z,60312.88
2022-09-20T14:12:21.837Z,60292.16
2022-09-20T14:14:49.669Z,60321.16
2022-09-20T14:17:19.180Z,60445.41
2022-09-20T14:19:51.272Z,60495.13
2022-09-20T14:22:20.789Z,60621.47
2022-09-20T14:24:59.382Z,60718.81
2022-09-20T14:27:25.961Z,60791.28
2022-09-20T14:29:53.566Z,60772.66
2022-09-20T14:32:25.826Z,60814.06
2022-09-20T14:34:55.231Z,60770.59
2022-09-20T14:37:27.775Z,60797.50
2022-09-20T14:39:56.967Z,60843.06
2022-09-20T14:42:30.070Z,60950.78
2022-09-20T14:44:56.508Z,60930.06
2022-09-20T14:47:37.336Z,60863.78
2022-09-20T14:50:22.581Z,60845.16
2022-09-20T14:53:03.902Z,60735.38
2022-09-20T14:55:36.935Z,60768.50
2022-09-20T14:58:13.811Z,60689.81
2022-09-20T15:00:48.310Z,60664.94
2022-09-20T15:03:16.677Z,60768.50
2022-09-20T15:05:44.412Z,60896.94
2022-09-20T15:08:14.012Z,60954.94
2022-09-20T15:10:40.586Z,60905.22
2022-09-20T15:13:10.650Z,60946.63
2022-09-20T15:15:37.537Z,60834.78
2022-09-20T15:18:05.332Z,60739.50
2022-09-20T15:20:31.738Z,60768.50
2022-09-20T15:22:58.681Z,60696.03
2022-09-20T15:25:25.351Z,60594.53
2022-09-20T15:27:51.786Z,60584.19
2022-09-20T15:30:19.964Z,60501.34
2022-09-20T15:32:46.829Z,60534.47
2022-09-20T15:35:14.222Z,60511.69
2022-09-20T15:37:41.174Z,60439.19
2022-09-20T15:40:09.060Z,60346.00
2022-09-20T15:42:38.258Z,60756.09
2022-09-20T15:45:08.921Z,60263.16
2022-09-20T15:47:37.175Z,60213.47
2022-09-20T15:50:11.033Z,60180.31
2022-09-20T15:52:42.270Z,60215.53
2022-09-20T15:55:09.265Z,60553.09
2022-09-20T15:57:37.093Z,60188.59
2022-09-20T16:00:04.853Z,60182.41
2022-09-20T16:02:31.328Z,60275.59
2022-09-20T16:04:59.315Z,60250.75
2022-09-20T16:07:25.772Z,60196.91
2022-09-20T16:09:56.602Z,60242.44
2022-09-20T16:12:24.561Z,60232.09
2022-09-20T16:14:51.323Z,60283.88
2022-09-20T16:17:18.111Z,60329.44
2022-09-20T16:19:45.986Z,60497.19
2022-09-20T16:22:12.522Z,60292.16
2022-09-20T16:24:38.931Z,60234.16
2022-09-20T16:27:07.330Z,60582.09
2022-09-20T16:29:34.496Z,60192.75
2022-09-20T16:32:03.341Z,60159.63
2022-09-20T16:34:34.702Z,60147.19
2022-09-20T16:37:06.809Z,60080.91
2022-09-20T16:39:33.472Z,60066.44
2022-09-20T16:42:04.827Z,60022.94
2022-09-20T16:44:32.996Z,60012.59
2022-09-20T16:46:59.696Z,60105.78
2022-09-20T16:49:29.762Z,59877.97
2022-09-20T16:51:56.186Z,60312.88
2022-09-20T16:54:22.829Z,59776.50
2022-09-20T16:56:50.783Z,59844.84
2022-09-20T16:59:21.541Z,59697.81
2022-09-20T17:01:48.764Z,59677.13
2022-09-20T17:04:17.785Z,59644.00
2022-09-20T17:06:45.538Z,59583.94
2022-09-20T17:09:12.847Z,59565.31
2022-09-20T17:11:47.732Z,59492.84
2022-09-20T17:14:16.344Z,59511.47
2022-09-20T17:16:43.474Z,59521.81
2022-09-20T17:19:12.108Z,59439.00
2022-09-20T17:21:44.650Z,59370.69
2022-09-20T17:24:11.265Z,59699.91
2022-09-20T17:26:40.231Z,59314.78
2022-09-20T17:29:10.150Z,59240.25
2022-09-20T17:31:38.603Z,59153.28
2022-09-20T17:34:07.691Z,59163.63
2022-09-20T17:36:38.193Z,59130.50
2022-09-20T17:39:04.815Z,59132.56
2022-09-20T17:41:32.745Z,59109.81
2022-09-20T17:44:02.429Z,59072.53
2022-09-20T17:46:31.549Z,59037.34
2022-09-20T17:49:06.688Z,59087.03
2022-09-20T17:51:37.184Z,59020.78
2022-09-20T17:54:04.008Z,59089.09
2022-09-20T17:56:31.091Z,59076.69
2022-09-20T17:58:59.002Z,59018.72
2022-09-20T18:01:27.260Z,59020.78
2022-09-20T18:03:56.188Z,59066.31
2022-09-20T18:06:28.382Z,59058.03
2022-09-20T18:09:01.165Z,59012.50
2022-09-20T18:11:31.554Z,59027.00
2022-09-20T18:13:58.974Z,58981.44
2022-09-20T18:16:25.562Z,58991.78
2022-09-20T18:18:52.110Z,59159.50
2022-09-20T18:21:21.060Z,59006.28
2022-09-20T18:23:48.498Z,58989.72
2022-09-20T18:26:23.020Z,58952.47
2022-09-20T18:29:12.680Z,58971.09
2022-09-20T18:31:42.031Z,58981.44
2022-09-20T18:34:11.567Z,58925.53
2022-09-20T18:36:41.869Z,58950.38
2022-09-20T18:39:08.302Z,59188.47
2022-09-20T18:41:36.669Z,58865.50
2022-09-20T18:44:05.082Z,58900.69
2022-09-20T18:46:31.643Z,58813.75
2022-09-20T18:49:08.231Z,58819.97
2022-09-20T18:51:42.468Z,58801.31
2022-09-20T18:54:12.919Z,58828.25
2022-09-20T18:56:41.087Z,58826.16
2022-09-20T18:59:17.306Z,58776.50
2022-09-20T19:01:49.931Z,58780.63
2022-09-20T19:04:35.134Z,58772.34
2022-09-20T19:07:25.670Z,58757.84
2022-09-20T19:10:11.986Z,58689.53
2022-09-20T19:13:18.261Z,58718.53
2022-09-20T19:16:05.247Z,58691.59
2022-09-20T19:19:09.243Z,58730.94
2022-09-20T19:21:50.790Z,58685.41
2022-09-20T19:24:45.292Z,58631.56
2022-09-20T19:27:13.171Z,58652.28
2022-09-20T19:29:40.367Z,58575.69
2022-09-20T19:32:13.340Z,58526.00
2022-09-20T19:34:43.392Z,58567.41
2022-09-20T19:37:19.040Z,58571.53
2022-09-20T19:40:10.977Z,58569.47
2022-09-20T19:42:55.119Z,58567.41
2022-09-20T19:46:06.461Z,58573.63
2022-09-20T19:48:36.792Z,58623.28
2022-09-20T19:51:05.483Z,58594.31
2022-09-20T19:53:32.289Z,58598.44
2022-09-20T19:56:29.561Z,58577.75
2022-09-20T19:58:56.354Z,58521.88
2022-09-20T20:01:24.348Z,58523.94
2022-09-20T20:03:54.611Z,58880.00
2022-09-20T20:06:23.093Z,58538.41
2022-09-20T20:08:56.791Z,58507.38
2022-09-20T20:11:47.001Z,58946.25
2022-09-20T20:14:28.858Z,58449.41
2022-09-20T20:17:06.406Z,58470.13
2022-09-20T20:19:52.095Z,58896.56
2022-09-20T20:22:57.543Z,58447.34
2022-09-20T20:26:10.100Z,58488.75
2022-09-20T20:28:49.860Z,58501.16
2022-09-20T20:31:19.901Z,58834.44
2022-09-20T20:33:46.671Z,58455.63
2022-09-20T20:36:13.228Z,58366.59
2022-09-20T20:38:40.879Z,58656.41
2022-09-20T20:41:15.148Z,58393.53
2022-09-20T20:43:43.039Z,58432.84
2022-09-20T20:46:37.519Z,58414.22
2022-09-20T20:52:13.231Z,58416.28
2022-09-20T20:54:39.849Z,58403.88
2022-09-20T20:57:06.294Z,58393.53
2022-09-20T20:59:47.115Z,58418.34
2022-09-20T21:02:30.139Z,58894.50
2022-09-20T21:04:56.601Z,58722.66
2022-09-20T21:07:23.055Z,58443.19
2022-09-20T21:09:50.118Z,58420.44
2022-09-20T21:12:16.547Z,58379.03
2022-09-20T21:14:44.446Z,58089.25
2022-09-20T21:17:11.284Z,58368.69
2022-09-20T21:19:37.686Z,58345.91
2022-09-20T21:22:04.159Z,58383.16
2022-09-20T21:24:30.886Z,58321.06
2022-09-20T21:26:57.301Z,58275.53
2022-09-20T21:29:23.882Z,58285.88
2022-09-20T21:31:50.397Z,58329.34
2022-09-20T21:34:19.970Z,58203.09
2022-09-20T21:36:46.401Z,58310.72
2022-09-20T21:39:13.104Z,58294.16
2022-09-20T21:41:40.262Z,58306.59
2022-09-20T21:44:07.412Z,58300.38
2022-09-20T21:46:40.101Z,58325.22
2022-09-20T21:49:09.048Z,58308.66
2022-09-20T21:51:36.342Z,58302.44
2022-09-20T21:54:03.841Z,58292.09
2022-09-20T21:56:35.093Z,58269.31
2022-09-20T21:59:03.782Z,58287.94
2022-09-20T22:01:35.285Z,58302.44
2022-09-20T22:04:07.690Z,58277.59
2022-09-20T22:06:39.457Z,58192.72
2022-09-20T22:09:09.660Z,58269.31
2022-09-20T22:11:41.503Z,58494.94
2022-09-20T22:14:09.144Z,58227.94
2022-09-20T22:16:38.291Z,58279.66
2022-09-20T22:19:06.108Z,58302.44
2022-09-20T22:21:35.306Z,58321.06
2022-09-20T22:24:04.034Z,58331.41
2022-09-20T22:26:34.118Z,58300.38
2022-09-20T22:29:00.787Z,58329.34
2022-09-20T22:31:29.671Z,58246.56
2022-09-20T22:34:00.936Z,58331.41
2022-09-20T22:36:32.922Z,58271.41
2022-09-20T22:38:59.347Z,58240.34
2022-09-20T22:41:25.983Z,58290.03
2022-09-20T22:43:52.561Z,58236.19
2022-09-20T22:46:22.030Z,58234.13
2022-09-20T22:48:49.174Z,58267.25
2022-09-20T22:51:23.975Z,58279.66
2022-09-20T22:53:52.761Z,58188.59
2022-09-20T22:56:24.601Z,58232.06
2022-09-20T22:58:53.274Z,58236.19
2022-09-20T23:01:25.279Z,58271.41
2022-09-20T23:03:57.747Z,58681.25
2022-09-20T23:06:31.738Z,58240.34
2022-09-20T23:09:00.636Z,58232.06
2022-09-20T23:11:28.582Z,58211.38
2022-09-20T23:13:59.626Z,58165.81
2022-09-20T23:16:30.850Z,58196.88
2022-09-20T23:18:59.037Z,58136.84
2022-09-20T23:21:26.140Z,58145.13
2022-09-20T23:23:53.661Z,58223.78
2022-09-20T23:26:20.916Z,58501.16
2022-09-20T23:28:53.541Z,58236.19
2022-09-20T23:31:20.266Z,58134.78
2022-09-20T23:33:55.135Z,58101.66
2022-09-20T23:36:22.193Z,58161.69
2022-09-20T23:38:49.176Z,58138.91
2022-09-20T23:41:18.168Z,58180.31
2022-09-20T23:43:44.595Z,58143.06
2022-09-20T23:46:12.284Z,58126.50
2022-09-20T23:48:41.641Z,58182.38
2022-09-20T23:51:09.567Z,58151.34
2022-09-20T23:53:36.742Z,58167.91
2022-09-20T23:56:04.739Z,58006.44
2022-09-20T23:58:31.238Z,58271.41
